createdAt,value
2023-02-17T00:02:12.889Z,20.00
2023-02-17T00:04:43.328Z,20.17
2023-02-17T00:07:15.722Z,20.27
2023-02-17T00:09:45.942Z,19.70
2023-02-17T00:12:15.581Z,16.93
2023-02-17T00:14:46.176Z,17.23
2023-02-17T00:17:16.654Z,19.23
2023-02-17T00:19:46.797Z,18.57
2023-02-17T00:22:19.014Z,16.40
2023-02-17T00:24:49.944Z,19.33
2023-02-17T00:27:21.538Z,18.70
2023-02-17T00:29:51.721Z,16.90
2023-02-17T00:32:21.449Z,18.27
2023-02-17T00:34:56.818Z,18.10
2023-02-17T00:37:28.974Z,18.27
2023-02-17T00:39:59.083Z,17.07
2023-02-17T00:42:29.809Z,14.97
2023-02-17T00:44:59.549Z,14.10
2023-02-17T00:47:29.810Z,15.77
2023-02-17T00:49:59.805Z,15.67
2023-02-17T00:52:31.555Z,17.20
2023-02-17T00:55:02.039Z,14.83
2023-02-17T00:57:33.297Z,15.30
2023-02-17T01:00:03.260Z,14.10
2023-02-17T01:02:34.944Z,13.90
2023-02-17T01:05:06.134Z,13.90
2023-02-17T01:07:39.366Z,14.13
2023-02-17T01:10:11.817Z,12.23
2023-02-17T01:12:42.613Z,11.50
2023-02-17T01:15:12.997Z,14.37
2023-02-17T01:17:43.821Z,11.63
2023-02-17T01:20:15.317Z,12.90
2023-02-17T01:22:46.412Z,13.50
2023-02-17T01:25:17.352Z,11.90
2023-02-17T01:27:48.688Z,10.90
2023-02-17T01:30:19.682Z,12.33
2023-02-17T01:32:50.808Z,11.73
2023-02-17T01:35:21.828Z,11.80
2023-02-17T01:37:54.297Z,12.20
2023-02-17T01:40:25.525Z,12.33
2023-02-17T01:42:55.490Z,12.37
2023-02-17T01:45:38.932Z,10.83
2023-02-17T01:48:12.589Z,11.30
2023-02-17T01:50:48.515Z,10.83
2023-02-17T01:53:23.772Z,10.20
2023-02-17T01:55:55.180Z,10.77
2023-02-17T01:58:26.505Z,9.60
2023-02-17T02:01:00.791Z,10.17
2023-02-17T02:03:34.618Z,9.00
2023-02-17T02:06:07.910Z,9.60
2023-02-17T02:08:45.545Z,10.43
2023-02-17T02:11:17.005Z,11.03
2023-02-17T02:13:48.003Z,11.70
2023-02-17T02:16:25.848Z,12.60
2023-02-17T02:19:00.808Z,13.97
2023-02-17T02:21:58.479Z,13.47
2023-02-17T02:24:39.248Z,15.00
2023-02-17T02:27:42.758Z,14.47
2023-02-17T02:30:41.471Z,14.73
2023-02-17T02:33:18.769Z,14.17
2023-02-17T02:35:55.795Z,13.77
2023-02-17T02:38:31.196Z,12.80
2023-02-17T02:41:06.246Z,13.60
2023-02-17T02:43:36.359Z,13.73
2023-02-17T02:46:07.663Z,13.00
2023-02-17T02:48:41.201Z,15.13
2023-02-17T02:51:29.775Z,14.27
2023-02-17T02:54:20.000Z,14.03
2023-02-17T02:57:11.996Z,14.30
2023-02-17T02:59:49.695Z,15.30
2023-02-17T03:02:28.925Z,13.03
2023-02-17T03:05:08.382Z,14.30
2023-02-17T03:07:41.440Z,13.13
2023-02-17T03:10:12.569Z,14.53
2023-02-17T03:12:43.436Z,16.90
2023-02-17T03:15:18.718Z,15.60
2023-02-17T03:17:49.234Z,13.53
2023-02-17T03:20:22.505Z,16.30
2023-02-17T03:22:53.090Z,13.77
2023-02-17T03:25:23.384Z,16.17
2023-02-17T03:27:53.881Z,16.57
2023-02-17T03:30:24.856Z,14.23
2023-02-17T03:32:55.621Z,16.17
2023-02-17T03:35:27.045Z,12.97
2023-02-17T03:37:57.090Z,13.80
2023-02-17T03:40:27.005Z,11.97
2023-02-17T03:42:59.437Z,11.87
2023-02-17T03:45:29.901Z,11.33
2023-02-17T03:47:59.669Z,12.80
2023-02-17T03:50:31.320Z,9.83
2023-02-17T03:53:00.784Z,12.40
2023-02-17T03:55:31.026Z,11.70
2023-02-17T03:58:01.135Z,10.53
2023-02-17T04:00:31.669Z,10.30
2023-02-17T04:03:01.718Z,10.97
2023-02-17T04:05:33.339Z,12.53
2023-02-17T04:08:04.023Z,10.73
2023-02-17T04:10:34.621Z,9.70
2023-02-17T04:13:05.772Z,10.43
2023-02-17T04:15:36.385Z,9.13
2023-02-17T04:18:06.526Z,9.70
2023-02-17T04:20:38.436Z,9.63
2023-02-17T04:23:08.565Z,8.87
2023-02-17T04:25:39.491Z,9.40
2023-02-17T04:28:10.538Z,9.87
2023-02-17T04:30:41.146Z,9.97
2023-02-17T04:33:11.156Z,9.20
2023-02-17T04:35:43.358Z,8.30
2023-02-17T04:38:14.606Z,9.00
2023-02-17T04:40:46.726Z,7.50
2023-02-17T04:43:16.947Z,8.57
2023-02-17T04:45:47.454Z,9.43
2023-02-17T04:48:18.166Z,10.63
2023-02-17T04:50:50.493Z,11.13
2023-02-17T04:53:21.515Z,10.87
2023-02-17T04:55:51.919Z,11.40
2023-02-17T04:58:23.205Z,12.57
2023-02-17T05:00:53.297Z,12.90
2023-02-17T05:03:23.370Z,11.43
2023-02-17T05:05:55.433Z,11.87
2023-02-17T05:08:27.618Z,12.17
2023-02-17T05:10:57.571Z,11.97
2023-02-17T05:13:33.717Z,11.30
2023-02-17T05:16:03.981Z,12.00
2023-02-17T05:18:34.634Z,11.20
2023-02-17T05:21:07.049Z,12.77
2023-02-17T05:23:41.512Z,10.70
2023-02-17T05:26:12.808Z,10.80
2023-02-17T05:28:43.035Z,12.63
2023-02-17T05:31:13.529Z,13.10
2023-02-17T05:33:45.029Z,13.77
2023-02-17T05:36:17.494Z,12.47
2023-02-17T05:38:50.656Z,11.17
2023-02-17T05:41:22.315Z,9.40
2023-02-17T05:43:52.616Z,11.43
2023-02-17T05:46:24.183Z,9.93
2023-02-17T05:48:55.287Z,9.10
2023-02-17T05:51:27.189Z,9.90
2023-02-17T05:53:56.952Z,10.07
2023-02-17T05:56:27.938Z,9.77
2023-02-17T05:58:58.400Z,10.57
2023-02-17T06:01:28.644Z,8.90
2023-02-17T06:03:59.654Z,9.37
2023-02-17T06:06:32.509Z,7.90
2023-02-17T06:09:02.944Z,8.17
2023-02-17T06:11:33.936Z,8.20
2023-02-17T06:14:04.680Z,9.30
2023-02-17T06:16:34.960Z,8.43
2023-02-17T06:19:05.707Z,8.60
2023-02-17T06:21:38.701Z,9.47
2023-02-17T06:24:09.356Z,8.50
2023-02-17T06:26:39.746Z,8.90
2023-02-17T06:29:10.365Z,11.40
2023-02-17T06:31:41.554Z,10.10
2023-02-17T06:34:12.198Z,9.67
2023-02-17T06:36:44.342Z,9.50
2023-02-17T06:39:14.941Z,10.43
2023-02-17T06:41:45.188Z,10.97
2023-02-17T06:44:16.171Z,9.37
2023-02-17T06:46:47.373Z,11.57
2023-02-17T06:49:17.530Z,10.40
2023-02-17T06:51:50.573Z,11.33
2023-02-17T06:54:21.339Z,12.10
2023-02-17T06:56:51.339Z,11.27
2023-02-17T06:59:23.180Z,12.43
2023-02-17T07:01:53.663Z,13.60
2023-02-17T07:04:23.595Z,14.53
2023-02-17T07:06:55.252Z,12.60
2023-02-17T07:09:25.502Z,14.93
2023-02-17T07:11:57.790Z,13.50
2023-02-17T07:14:28.691Z,13.90
2023-02-17T07:16:59.536Z,13.30
2023-02-17T07:19:29.730Z,14.40
2023-02-17T07:22:03.020Z,14.50
2023-02-17T07:24:34.400Z,14.77
2023-02-17T07:27:04.536Z,14.50
2023-02-17T07:29:34.954Z,13.83
2023-02-17T07:32:05.423Z,13.30
2023-02-17T07:34:36.137Z,15.53
2023-02-17T07:37:08.610Z,17.53
2023-02-17T07:39:38.683Z,16.80
2023-02-17T07:42:10.226Z,14.67
2023-02-17T07:44:40.487Z,17.03
2023-02-17T07:47:10.485Z,15.77
2023-02-17T07:49:41.514Z,15.80
2023-02-17T07:52:13.887Z,18.53
2023-02-17T07:54:44.029Z,19.60
2023-02-17T07:57:14.608Z,15.80
2023-02-17T07:59:45.755Z,18.50
2023-02-17T08:02:16.639Z,12.63
2023-02-17T08:04:48.065Z,13.73
2023-02-17T08:07:19.747Z,12.73
2023-02-17T08:10:07.285Z,12.90
2023-02-17T08:12:54.333Z,14.80
2023-02-17T08:15:24.384Z,10.67
2023-02-17T08:17:55.401Z,13.60
2023-02-17T08:20:26.443Z,13.67
2023-02-17T08:22:58.893Z,16.10
2023-02-17T08:25:29.231Z,14.90
2023-02-17T08:27:59.271Z,14.97
2023-02-17T08:30:29.007Z,16.47
2023-02-17T08:32:59.988Z,13.93
2023-02-17T08:35:31.116Z,14.47
2023-02-17T08:38:03.212Z,13.13
2023-02-17T08:40:33.934Z,13.47
2023-02-17T08:43:04.287Z,13.67
2023-02-17T08:45:34.817Z,14.63
2023-02-17T08:48:05.235Z,17.33
2023-02-17T08:50:36.330Z,14.90
2023-02-17T08:53:07.916Z,13.07
2023-02-17T08:55:48.940Z,14.73
2023-02-17T08:58:20.700Z,15.07
2023-02-17T09:00:50.732Z,13.73
2023-02-17T09:03:21.456Z,14.60
2023-02-17T09:05:51.502Z,13.03
2023-02-17T09:08:23.540Z,15.13
2023-02-17T09:10:54.107Z,13.77
2023-02-17T09:13:24.277Z,11.80
2023-02-17T09:15:57.120Z,12.80
2023-02-17T09:18:28.246Z,14.80
2023-02-17T09:21:00.841Z,13.50
2023-02-17T09:23:32.723Z,12.20
2023-02-17T09:26:07.685Z,12.30
2023-02-17T09:28:38.595Z,12.27
2023-02-17T09:31:12.905Z,10.90
2023-02-17T09:33:47.962Z,12.00
2023-02-17T09:36:21.861Z,12.07
2023-02-17T09:38:54.863Z,14.73
2023-02-17T09:41:28.078Z,15.10
2023-02-17T09:43:59.417Z,12.67
2023-02-17T09:46:32.637Z,13.70
2023-02-17T09:49:05.998Z,13.17
2023-02-17T09:51:38.626Z,13.23
2023-02-17T09:54:16.439Z,14.33
2023-02-17T09:56:49.366Z,13.83
2023-02-17T09:59:24.017Z,15.87
2023-02-17T10:01:55.482Z,13.70
2023-02-17T10:04:28.059Z,13.93
2023-02-17T10:07:04.747Z,13.97
2023-02-17T10:09:41.266Z,13.53
2023-02-17T10:12:14.921Z,12.50
2023-02-17T10:14:47.082Z,12.93
2023-02-17T10:17:21.600Z,12.63
2023-02-17T10:19:55.806Z,11.90
2023-02-17T10:22:26.880Z,8.67
2023-02-17T10:25:00.909Z,9.67
2023-02-17T10:27:42.681Z,8.17
2023-02-17T10:30:23.515Z,9.30
2023-02-17T10:33:05.634Z,7.03
2023-02-17T10:35:54.370Z,6.20
2023-02-17T10:38:39.695Z,5.80
2023-02-17T10:41:16.242Z,5.40
2023-02-17T10:43:47.954Z,5.67
2023-02-17T10:46:21.227Z,6.80
2023-02-17T10:48:53.589Z,5.50
2023-02-17T10:51:27.410Z,5.10
2023-02-17T10:54:02.843Z,4.50
2023-02-17T10:56:40.431Z,4.70
2023-02-17T10:59:16.551Z,4.63
2023-02-17T11:01:47.024Z,5.17
2023-02-17T11:04:17.444Z,5.83
2023-02-17T11:06:53.156Z,5.53
2023-02-17T11:09:29.056Z,6.27
2023-02-17T11:12:04.658Z,5.87
2023-02-17T11:14:36.019Z,4.80
2023-02-17T11:17:14.882Z,4.83
2023-02-17T11:19:45.142Z,5.50
2023-02-17T11:22:35.525Z,5.63
2023-02-17T11:25:09.218Z,4.90
2023-02-17T11:27:40.595Z,4.30
2023-02-17T11:30:18.938Z,5.50
2023-02-17T11:32:50.106Z,4.87
2023-02-17T11:35:30.219Z,5.87
2023-02-17T11:38:04.325Z,6.90
2023-02-17T11:40:35.144Z,5.87
2023-02-17T11:43:08.465Z,5.40
2023-02-17T11:45:44.180Z,5.27
2023-02-17T11:48:33.840Z,5.63
2023-02-17T11:51:12.782Z,6.03
2023-02-17T11:53:51.962Z,5.63
2023-02-17T11:56:26.355Z,6.10
2023-02-17T11:59:16.888Z,5.20
2023-02-17T12:02:19.497Z,5.37
2023-02-17T12:04:55.479Z,5.60
2023-02-17T12:07:40.427Z,5.97
2023-02-17T12:10:20.212Z,6.80
2023-02-17T12:13:01.500Z,6.87
2023-02-17T12:15:42.091Z,5.03
2023-02-17T12:18:36.612Z,6.10
2023-02-17T12:21:11.328Z,5.37
2023-02-17T12:23:56.713Z,5.47
2023-02-17T12:26:34.322Z,5.20
2023-02-17T12:29:13.122Z,6.43
2023-02-17T12:32:03.102Z,6.20
2023-02-17T12:34:37.065Z,5.77
2023-02-17T12:37:08.966Z,6.27
2023-02-17T12:39:44.216Z,6.80
2023-02-17T12:42:18.768Z,6.40
2023-02-17T12:44:52.496Z,5.97
2023-02-17T12:47:29.129Z,5.67
2023-02-17T12:50:04.504Z,5.80
2023-02-17T12:52:40.413Z,6.20
2023-02-17T12:55:15.699Z,6.30
2023-02-17T12:57:53.702Z,6.40
2023-02-17T13:00:26.433Z,5.20
2023-02-17T13:03:01.628Z,6.20
2023-02-17T13:05:36.383Z,6.80
2023-02-17T13:08:10.078Z,6.00
2023-02-17T13:10:41.649Z,5.90
2023-02-17T13:13:14.699Z,6.37
2023-02-17T13:15:47.579Z,6.10
2023-02-17T13:18:31.361Z,6.33
2023-02-17T13:21:03.278Z,5.50
2023-02-17T13:23:39.028Z,6.30
2023-02-17T13:26:29.058Z,5.90
2023-02-17T13:29:21.984Z,5.20
2023-02-17T13:31:55.059Z,6.50
2023-02-17T13:34:34.571Z,6.93
2023-02-17T13:37:16.628Z,5.87
2023-02-17T13:39:48.011Z,6.53
2023-02-17T13:42:39.260Z,6.13
2023-02-17T13:45:27.519Z,5.60
2023-02-17T13:47:59.908Z,5.93
2023-02-17T13:50:35.339Z,5.10
2023-02-17T13:53:23.119Z,5.53
2023-02-17T13:55:53.186Z,4.93
2023-02-17T13:58:28.491Z,4.80
2023-02-17T14:01:00.669Z,5.23
2023-02-17T14:03:33.257Z,4.83
2023-02-17T14:06:06.162Z,5.27
2023-02-17T14:08:38.632Z,5.83
2023-02-17T14:11:12.150Z,4.57
2023-02-17T14:13:44.781Z,5.40
2023-02-17T14:16:30.854Z,4.90
2023-02-17T14:19:06.881Z,4.30
2023-02-17T14:21:40.549Z,5.33
2023-02-17T14:24:23.741Z,5.10
2023-02-17T14:26:59.289Z,5.03
2023-02-17T14:29:41.894Z,5.20
2023-02-17T14:32:31.446Z,4.97
2023-02-17T14:35:22.824Z,5.83
2023-02-17T14:37:54.882Z,4.20
2023-02-17T14:40:27.627Z,5.10
2023-02-17T14:42:57.061Z,5.47
2023-02-17T14:45:27.821Z,5.87
2023-02-17T14:47:59.011Z,5.50
2023-02-17T14:50:29.337Z,5.00
2023-02-17T14:53:01.720Z,6.23
2023-02-17T14:55:35.206Z,5.10
2023-02-17T14:58:05.578Z,5.80
2023-02-17T15:00:35.916Z,5.70
2023-02-17T15:03:06.435Z,6.57
2023-02-17T15:05:37.613Z,6.23
2023-02-17T15:08:12.571Z,5.40
2023-02-17T15:10:43.024Z,5.90
2023-02-17T15:13:16.612Z,5.37
2023-02-17T15:15:48.484Z,4.83
2023-02-17T15:18:20.309Z,6.07
2023-02-17T15:20:51.552Z,4.83
2023-02-17T15:23:25.799Z,4.90
2023-02-17T15:25:57.257Z,6.03
2023-02-17T15:28:27.285Z,5.77
2023-02-17T15:30:58.646Z,6.37
2023-02-17T15:34:14.909Z,6.17
2023-02-17T15:36:45.064Z,5.10
2023-02-17T15:39:18.383Z,5.60
2023-02-17T15:41:49.988Z,5.80
2023-02-17T15:44:22.283Z,7.90
2023-02-17T15:46:53.295Z,7.40
2023-02-17T15:49:23.916Z,6.77
2023-02-17T15:51:53.833Z,7.43
2023-02-17T15:54:25.822Z,8.30
2023-02-17T15:56:56.555Z,7.50
2023-02-17T15:59:29.358Z,6.87
2023-02-17T16:02:01.645Z,8.07
2023-02-17T16:04:32.112Z,8.97
2023-02-17T16:07:01.865Z,8.67
2023-02-17T16:09:34.173Z,9.40
2023-02-17T16:12:04.116Z,9.80
2023-02-17T16:14:36.148Z,10.00
2023-02-17T16:17:11.732Z,10.73
2023-02-17T16:19:48.183Z,11.90
2023-02-17T16:22:24.096Z,11.60
2023-02-17T16:24:56.695Z,10.07
2023-02-17T16:27:26.839Z,11.10
2023-02-17T16:30:00.155Z,12.43
2023-02-17T16:32:33.241Z,9.83
2023-02-17T16:35:04.995Z,9.47
2023-02-17T16:37:35.811Z,10.57
2023-02-17T16:40:16.912Z,12.13
2023-02-17T16:42:47.707Z,13.50
2023-02-17T16:45:22.177Z,14.50
2023-02-17T16:47:54.848Z,12.53
2023-02-17T16:50:30.370Z,14.10
2023-02-17T16:53:04.217Z,13.27
2023-02-17T16:55:39.920Z,14.40
2023-02-17T16:58:17.863Z,15.30
2023-02-17T17:00:54.370Z,14.33
2023-02-17T17:03:27.053Z,15.27
2023-02-17T17:05:58.315Z,14.50
2023-02-17T17:08:28.472Z,14.97
2023-02-17T17:11:01.013Z,16.90
2023-02-17T17:13:33.652Z,16.40
2023-02-17T17:16:04.329Z,16.60
2023-02-17T17:18:35.971Z,15.70
2023-02-17T17:21:06.953Z,18.33
2023-02-17T17:23:39.327Z,20.27
2023-02-17T17:26:23.746Z,20.53
2023-02-17T17:28:55.282Z,20.87
2023-02-17T17:31:26.708Z,23.40
2023-02-17T17:33:57.874Z,23.27
2023-02-17T17:36:30.227Z,21.93
2023-02-17T17:39:03.196Z,25.60
2023-02-17T17:41:36.777Z,24.43
2023-02-17T17:44:10.554Z,23.80
2023-02-17T17:46:42.501Z,20.70
2023-02-17T17:49:18.571Z,22.77
2023-02-17T17:51:50.016Z,24.80
2023-02-17T17:54:20.280Z,24.90
2023-02-17T17:56:51.953Z,26.53
2023-02-17T17:59:22.123Z,24.93
2023-02-17T18:01:53.040Z,23.50
2023-02-17T18:04:23.414Z,24.40
2023-02-17T18:06:56.107Z,23.30
2023-02-17T18:09:32.298Z,24.23
2023-02-17T18:12:10.056Z,23.57
2023-02-17T18:14:41.052Z,24.73
2023-02-17T18:17:13.862Z,25.07
2023-02-17T18:19:44.602Z,21.40
2023-02-17T18:22:16.333Z,21.07
2023-02-17T18:24:48.001Z,20.20
2023-02-17T18:27:19.904Z,22.60
2023-02-17T18:29:49.939Z,21.33
2023-02-17T18:32:22.149Z,20.10
2023-02-17T18:34:52.798Z,19.50
2023-02-17T18:37:23.192Z,20.00
2023-02-17T18:39:53.586Z,20.40
2023-02-17T18:42:25.272Z,19.60
2023-02-17T18:44:56.258Z,17.73
2023-02-17T18:47:26.244Z,20.43
2023-02-17T18:49:56.543Z,19.53
2023-02-17T18:52:27.330Z,19.27
2023-02-17T18:54:57.649Z,19.10
2023-02-17T18:57:29.745Z,18.00
2023-02-17T18:59:59.835Z,19.60
2023-02-17T19:02:31.142Z,18.30
2023-02-17T19:05:01.859Z,20.70
2023-02-17T19:07:31.836Z,17.67
2023-02-17T19:10:02.457Z,20.17
2023-02-17T19:12:34.889Z,18.67
2023-02-17T19:15:07.420Z,18.90
2023-02-17T19:17:37.741Z,21.70
2023-02-17T19:20:12.407Z,19.63
2023-02-17T19:22:42.773Z,21.07
2023-02-17T19:25:13.336Z,19.37
2023-02-17T19:27:45.388Z,21.10
2023-02-17T19:30:16.810Z,20.60
2023-02-17T19:32:47.264Z,20.47
2023-02-17T19:35:17.985Z,19.07
2023-02-17T19:37:51.060Z,19.27
2023-02-17T19:40:26.587Z,18.57
2023-02-17T19:43:06.379Z,19.43
2023-02-17T19:45:40.859Z,19.90
2023-02-17T19:48:13.314Z,19.97
2023-02-17T19:50:45.806Z,19.07
2023-02-17T19:53:17.531Z,20.10
2023-02-17T19:55:47.460Z,21.77
2023-02-17T19:58:19.424Z,20.63
2023-02-17T20:00:49.855Z,22.10
2023-02-17T20:03:20.510Z,21.53
2023-02-17T20:05:50.271Z,20.10
2023-02-17T20:08:21.498Z,20.77
2023-02-17T20:10:52.496Z,23.50
2023-02-17T20:13:25.908Z,22.83
2023-02-17T20:16:01.228Z,22.53
2023-02-17T20:18:31.951Z,23.17
2023-02-17T20:21:02.752Z,21.87
2023-02-17T20:23:33.111Z,20.53
2023-02-17T20:26:08.109Z,21.20
2023-02-17T20:28:40.169Z,22.27
2023-02-17T20:31:11.332Z,24.10
2023-02-17T20:33:43.742Z,22.90
2023-02-17T20:36:15.034Z,23.83
2023-02-17T20:38:45.496Z,23.33
2023-02-17T20:41:18.934Z,20.50
2023-02-17T20:43:51.478Z,22.10
2023-02-17T20:46:26.491Z,23.80
2023-02-17T20:48:57.046Z,21.20
2023-02-17T20:51:27.509Z,21.97
2023-02-17T20:53:59.536Z,22.93
2023-02-17T20:56:36.021Z,20.50
2023-02-17T20:59:09.740Z,19.23
2023-02-17T21:01:39.586Z,20.47
2023-02-17T21:04:10.192Z,20.30
2023-02-17T21:06:41.583Z,21.90
2023-02-17T21:09:16.307Z,20.27
2023-02-17T21:11:46.843Z,21.83
2023-02-17T21:14:19.552Z,20.57
2023-02-17T21:16:49.933Z,21.50
2023-02-17T21:19:20.188Z,22.13
2023-02-17T21:21:50.506Z,21.90
2023-02-17T21:24:20.155Z,24.37
2023-02-17T21:26:49.952Z,26.93
2023-02-17T21:29:21.005Z,26.60
2023-02-17T21:31:53.023Z,28.23
2023-02-17T21:34:23.922Z,27.30
2023-02-17T21:36:54.742Z,26.70
2023-02-17T21:39:25.631Z,27.07
2023-02-17T21:41:56.034Z,27.70
2023-02-17T21:44:45.583Z,25.27
2023-02-17T21:47:15.725Z,25.20
2023-02-17T21:49:45.552Z,22.10
2023-02-17T21:52:16.465Z,22.17
2023-02-17T21:54:46.945Z,19.90
2023-02-17T21:57:17.922Z,19.40
2023-02-17T21:59:51.088Z,18.57
2023-02-17T22:02:21.908Z,17.33
2023-02-17T22:04:56.516Z,19.13
2023-02-17T22:07:27.191Z,19.50
2023-02-17T22:09:57.530Z,18.50
2023-02-17T22:12:27.524Z,18.33
2023-02-17T22:14:59.117Z,17.20
2023-02-17T22:17:29.129Z,18.67
2023-02-17T22:19:59.924Z,18.53
2023-02-17T22:22:30.379Z,18.03
2023-02-17T22:25:00.724Z,18.20
2023-02-17T22:27:30.961Z,18.20
2023-02-17T22:30:02.536Z,18.33
2023-02-17T22:32:33.470Z,20.20
2023-02-17T22:35:04.871Z,21.57
2023-02-17T22:37:36.697Z,21.23
2023-02-17T22:40:11.869Z,21.23
2023-02-17T22:42:42.062Z,23.03
2023-02-17T22:45:13.956Z,20.80
2023-02-17T22:47:45.119Z,19.07
2023-02-17T22:50:16.018Z,20.27
2023-02-17T22:52:46.730Z,18.03
2023-02-17T22:55:16.865Z,19.53
2023-02-17T22:57:47.771Z,18.83
2023-02-17T23:00:24.162Z,17.87
2023-02-17T23:02:55.295Z,17.20
2023-02-17T23:05:25.378Z,17.80
2023-02-17T23:07:56.366Z,17.33
2023-02-17T23:10:27.413Z,17.03
2023-02-17T23:12:56.922Z,18.10
2023-02-17T23:15:40.992Z,18.30
2023-02-17T23:18:13.099Z,17.73
2023-02-17T23:20:47.276Z,17.27
2023-02-17T23:23:18.015Z,18.33
2023-02-17T23:25:52.019Z,19.23
2023-02-17T23:28:24.237Z,19.83
2023-02-17T23:30:56.954Z,21.33
2023-02-17T23:33:27.781Z,17.47
2023-02-17T23:35:58.402Z,19.60
2023-02-17T23:38:28.772Z,19.07
2023-02-17T23:40:59.645Z,18.00
2023-02-17T23:43:31.456Z,17.17
2023-02-17T23:46:03.444Z,17.30
2023-02-17T23:48:34.427Z,15.47
2023-02-17T23:51:06.002Z,18.53
2023-02-17T23:53:36.310Z,16.37
2023-02-17T23:56:09.013Z,15.70
2023-02-17T23:58:40.456Z,16.50
